Terminal Aerodrome Forecast
Issued by NWS

Home | Current Version | Previous Version | Text Only | Print | Product List | Glossary On
Versions: 1 2 3 4 5 6 7 8 9 10 11 12 13 14 15 16
000
FTUS45 KGGW 021100
TAFSDY
TAF
KSDY 021128Z 0212/0312 20011KT P6SM BKN090
     FM021400 29015KT P6SM VCSH BKN040
     FM021500 29018G26KT P6SM VCSH BKN025
     FM021800 31024G33KT P6SM BKN035
     FM030000 31022G31KT P6SM SCT060
     FM030900 30015KT P6SM FEW180
      AMD LTD TO CLD VIS AND WIND=

USA.gov is the U.S. government's official web portal to all federal, state and local government web resources and services.